Durango Ski Resort, Colorado Weather observations

Data are for observation ending at time listed.
 Day   Time    Ave.   Ave.  Ave.  Vector   Max.    Total    Solar   Ave.  
  of    of     Air    Rel.  Wind   Wind    Wind   Precip.   Rad.    Soil  
Year   Day     Temp.  Hum.  Speed  Dir.    Gust                     Temp. 
2015   (PST)    F      %     mph   deg.    mph      in.     W/m2     F   
------------------------------------------------------------------------------
 142   21:00   30.5   100    2.8   217      5.2    99999.00   99999    99999.0
 142   21:10   30.5   100    2.7   206      6.5    99999.00   99999    99999.0
 142   21:20   30.6   100    1.1   236      4.8    99999.00   99999    99999.0
 142   21:30   30.4   100    0.4   259      4.4    99999.00   99999    99999.0
 142   21:40   30.4   100    6.8   280      9.5    99999.00   99999    99999.0
 142   21:50   30.5   100    4.3   287      6.9    99999.00   99999    99999.0
 142   22:00   30.5   100    2.7   287      6.9    99999.00   99999    99999.0
 142   22:10   30.8    99    1.6   258      7.8    99999.00   99999    99999.0
 142   22:20   31.1    97    3.8   188      6.9    99999.00   99999    99999.0
 142   22:30   30.9    98    5.2   198     13.3    99999.00   99999    99999.0
 142   22:40   30.3   100    6.8   247     15.0    99999.00   99999    99999.0
 142   22:50   29.4   100    6.4   255     15.9    99999.00   99999    99999.0
 142   23:00   28.7   100    8.4   252     15.5    99999.00   99999    99999.0
 142   23:10   28.3   100    6.7   268     13.8    99999.00   99999    99999.0
 142   23:20   28.3   100    7.2   284     11.2    99999.00   99999    99999.0
 142   23:30   28.3   100    6.4   266     10.3    99999.00   99999    99999.0
 142   23:40   28.3    97    7.2   242     15.0    99999.00   99999    99999.0
 142   23:50   28.3    94    8.2   229     15.0    99999.00   99999    99999.0
 143    0:00   28.1    93    7.9   211     14.2    99999.00   99999    99999.0
 143    0:10   28.1    93    6.3   217     16.3    99999.00   99999    99999.0
 143    0:20   27.9    95    2.5   255      7.8    99999.00   99999    99999.0
 143    0:30   27.5    97    2.6   265      5.2    99999.00   99999    99999.0
 143    0:40   27.6   100    5.7   272      7.4    99999.00   99999    99999.0
 143    0:50   27.6   100    2.8   273      5.7    99999.00   99999    99999.0
 143    1:00   27.2    99    6.1   230     11.2    99999.00   99999    99999.0
 143    1:10   27.0    99    1.8   237      4.8    99999.00   99999    99999.0
 143    1:20   27.0    99    0.8   181      4.8    99999.00   99999    99999.0
 143    1:30   26.9    98    3.0   174      7.8    99999.00   99999    99999.0
 143    1:40   26.8    97    4.6   164      9.9    99999.00   99999    99999.0
 143    1:50   26.6    98    5.6   120      8.6    99999.00   99999    99999.0
 143    2:00   26.4   100    5.7    95      9.5    99999.00   99999    99999.0
 143    2:10   26.3   100    5.5   103      8.6    99999.00   99999    99999.0
 143    2:20   26.1   100    3.2   107      4.8    99999.00   99999    99999.0
 143    2:30   26.3   100    3.9    97      7.8    99999.00   99999    99999.0
 143    2:40   26.4   100    6.1    99      8.6    99999.00   99999    99999.0
 143    2:50   26.5    98    5.0    85      8.2    99999.00   99999    99999.0
 143    3:00   26.8    94    1.2    87      4.8    99999.00   99999    99999.0
 143    3:10   27.1    91    3.1   194     14.6    99999.00   99999    99999.0
 143    3:20   26.2    94    8.6   204     18.5    99999.00   99999    99999.0
 143    3:30   25.8    96    4.9   185      9.9    99999.00   99999    99999.0
 143    3:40   25.6    94    4.5   170      7.4    99999.00   99999    99999.0
 143    3:50   25.4    94    4.3   168      6.1    99999.00   99999    99999.0
 143    4:00   25.9    91    3.8   167      6.5    99999.00   99999    99999.0
 143    4:10   26.1    89    4.5   132      5.7    99999.00   99999    99999.0
 143    4:20   26.2    88    4.3    99      6.1    99999.00   99999    99999.0
 143    4:30   26.4    86    4.8   100      6.9    99999.00   99999    99999.0
 143    4:40   26.5    86    4.6   112      6.9    99999.00   99999    99999.0
 143    4:50   26.2    87    4.3   155      8.6    99999.00   99999    99999.0
 143    5:00   26.3    86    5.2   182      7.4    99999.00   99999    99999.0
 143    5:10   26.0    88    5.8   181      8.2    99999.00   99999    99999.0
 143    5:20   25.6    90    6.4   172      9.5    99999.00   99999    99999.0
 143    5:30   25.5    90    6.0   154     10.8    99999.00   99999    99999.0
 143    5:40   26.0    88    5.9   150     11.6    99999.00   99999    99999.0
 143    5:50   25.9    91    5.6   130      8.6    99999.00   99999    99999.0
 143    6:00   26.9    91    5.3   136      8.6    99999.00   99999    99999.0
 143    6:10   27.6    89    5.0   145     10.3    99999.00   99999    99999.0
 143    6:20   28.1    87    3.9   154      6.1    99999.00   99999    99999.0
 143    6:30   28.8    86    3.3   153      6.9    99999.00   99999    99999.0
 143    6:40   29.3    84    3.4   151      6.5    99999.00   99999    99999.0
 143    6:50   29.4    82    3.8   149      6.9    99999.00   99999    99999.0
 143    7:00   29.7    81    4.2   155      8.2    99999.00   99999    99999.0
 143    7:10   29.9    82    5.3   149      9.5    99999.00   99999    99999.0
 143    7:20   30.2    82    5.6   153     10.8    99999.00   99999    99999.0
 143    7:30   31.0    80    6.7   152     11.2    99999.00   99999    99999.0
 143    7:40   32.0    79    5.6   160     12.1    99999.00   99999    99999.0
 143    7:50   32.1    77    6.4   147     16.3    99999.00   99999    99999.0
 143    8:00   29.6    81    7.1   150     12.9    99999.00   99999    99999.0
 143    8:10   30.1    80    8.7   149     15.5    99999.00   99999    99999.0
 143    8:20   30.3    78    8.0   145     14.2    99999.00   99999    99999.0
 143    8:30   32.0    76    6.1   140     13.3    99999.00   99999    99999.0
 143    8:40   31.8    78    5.1   158      9.9    99999.00   99999    99999.0
 143    8:50   29.6    84    4.9   176      9.9    99999.00   99999    99999.0
 143    9:00   29.9    84    5.5   168     12.5    99999.00   99999    99999.0
 143    9:10   30.1    80    7.1   152     13.8    99999.00   99999    99999.0
 143    9:20   29.2    84    5.2   144     11.6    99999.00   99999    99999.0
 143    9:30   29.2    87    4.0   193     10.8    99999.00   99999    99999.0
 143    9:40   28.1    86    7.7   147     12.1    99999.00   99999    99999.0
 143    9:50   27.9    89    7.7   147     14.6    99999.00   99999    99999.0
 143   10:00   27.7    89    7.1   145     14.2    99999.00   99999    99999.0
 143   10:10   28.2    90    3.1   166      8.2    99999.00   99999    99999.0
 143   10:20   26.9    95    4.7   206     12.1    99999.00   99999    99999.0
 143   10:30   29.0    90    5.0   190     14.2    99999.00   99999    99999.0
 143   10:40   31.6    83    5.6   195     15.9    99999.00   99999    99999.0
 143   10:50   30.8    85    4.5   187      8.2    99999.00   99999    99999.0
 143   11:00   30.6    84    5.8   189     11.6    99999.00   99999    99999.0
 143   11:10   30.1    85    6.1   179     14.2    99999.00   99999    99999.0
 143   11:20   31.9    82    5.8   187     13.8    99999.00   99999    99999.0
 143   11:30   30.6    80    8.6   168     19.7    99999.00   99999    99999.0
 143   11:40   30.2    80    7.4   172     18.5    99999.00   99999    99999.0
 143   11:50   31.4    75    8.7   166     18.0    99999.00   99999    99999.0
 143   12:00   31.5    71    8.7   158     17.6    99999.00   99999    99999.0
 143   12:10   31.2    72    6.3   172     14.6    99999.00   99999    99999.0
 143   12:20   30.5    68    9.6   182     21.0    99999.00   99999    99999.0
 143   12:30   29.4    72   10.8   195     22.3    99999.00   99999    99999.0
 143   12:40   31.0    71    7.8   186     15.0    99999.00   99999    99999.0
 143   12:50   31.5    66   10.7   192     19.7    99999.00   99999    99999.0
 143   13:00   33.4    65    8.8   191     18.0    99999.00   99999    99999.0
 143   13:10   32.7    65   11.2   192     19.7    99999.00   99999    99999.0
 143   13:20   31.9    68   10.0   185     18.5    99999.00   99999    99999.0
 143   13:30   31.3    71    7.8   183     21.0    99999.00   99999    99999.0
 143   13:40   34.1    68    7.8   180     17.2    99999.00   99999    99999.0
 143   13:50   31.7    72   11.7   169     20.6    99999.00   99999    99999.0
 143   14:00   30.5    72    9.8   182     18.0    99999.00   99999    99999.0
 143   14:10   32.5    71    4.2   173     10.3    99999.00   99999    99999.0
 143   14:20   34.0    68    6.1   179     14.6    99999.00   99999    99999.0
 143   14:30   32.2    72    6.3   177     14.6    99999.00   99999    99999.0
 143   14:40   31.3    78    8.4   185     18.9    99999.00   99999    99999.0
 143   14:50   30.6    85    5.2   176     12.1    99999.00   99999    99999.0
 143   15:00   34.9    74    1.9   181      7.4    99999.00   99999    99999.0
 143   15:10   32.8    77    6.5   205     14.6    99999.00   99999    99999.0
 143   15:20   30.9    85    6.6   189     16.3    99999.00   99999    99999.0
 143   15:30   31.8    83    4.6   189     11.6    99999.00   99999    99999.0
 143   15:40   30.3    86    8.8   185     13.3    99999.00   99999    99999.0
 143   15:50   30.1    86    7.0   191     14.2    99999.00   99999    99999.0
 143   16:00   30.3    83    6.7   182     10.8    99999.00   99999    99999.0
 143   16:10   29.6    87    8.5   199     13.3    99999.00   99999    99999.0
 143   16:20   29.1    94    5.0   201      9.1    99999.00   99999    99999.0
 143   16:30   29.9    90    5.8   205      9.1    99999.00   99999    99999.0
 143   16:40   29.7    90    6.4   201     15.9    99999.00   99999    99999.0
 143   16:50   28.6    93    7.5   200     13.8    99999.00   99999    99999.0
 143   17:00   28.7    91    7.0   186     13.3    99999.00   99999    99999.0
 143   17:10   28.6    90    7.6   182     17.6    99999.00   99999    99999.0
 143   17:20   28.5    91    6.1   179     16.3    99999.00   99999    99999.0
 143   17:30   28.7    93    3.2   213      8.2    99999.00   99999    99999.0
 143   17:40   28.8    92    4.2   176     10.3    99999.00   99999    99999.0
 143   17:50   28.5    92    5.9   176     11.6    99999.00   99999    99999.0
 143   18:00   28.2    95    5.9   180     12.1    99999.00   99999    99999.0
 143   18:10   27.7    98    6.9   180     12.5    99999.00   99999    99999.0
 143   18:20   27.5    99    7.5   180     12.5    99999.00   99999    99999.0
 143   18:30   27.5   100    4.3   174     10.3    99999.00   99999    99999.0
 143   18:40   27.8   100    1.5   165      6.5    99999.00   99999    99999.0
 143   18:50   27.9   100    0.9   143      5.7    99999.00   99999    99999.0
 143   19:00   27.7   100    4.1   121      6.1    99999.00   99999    99999.0
 143   19:10   27.6   100    2.2   161      5.7    99999.00   99999    99999.0
 143   19:20   27.5   100    1.9   152      5.2    99999.00   99999    99999.0
 143   19:30   27.3   100    1.9   162      4.8    99999.00   99999    99999.0
 143   19:40   27.0   100    0.7   129      4.4    99999.00   99999    99999.0
 143   19:50   27.0   100    0.1   139      3.1    99999.00   99999    99999.0
 143   20:00   27.0   100    0.0     0      0.0    99999.00   99999    99999.0
 143   20:10   27.0   100    0.0     0      0.0    99999.00   99999    99999.0
 143   20:20   27.1   100    0.0     0      0.0    99999.00   99999    99999.0
 143   20:30   27.3   100    0.0     0      0.0    99999.00   99999    99999.0
 143   20:40   27.3   100    0.0     0      0.0    99999.00   99999    99999.0
 143   20:50   27.1   100    0.0     0      0.0    99999.00   99999    99999.0

Return to Durango Ski Resort, Colorado graphs page.


Western Regional Climate Center,wrcc@dri.edu